EBCV

Chièvres Air Base Airport

Chièvres, Belgium
METAR EBCV 181455Z AUTO 26011KT 9999 FEW034/// 07/02 Q1003 BLU
Observed Flight Rules
Jan-18 @ 14:55 UTC (47 minutes ago) Visual Flight Rules
Wind Visibility Clouds
260° at 11 knots 10,000+ meters
  • Few at 3,400' AGL
Temperatures Readings
Current 7°C / 45°F
Dewpoint 2°C / 36°F
Humidity 71%
Altimeter 29.62" Hg
Pressure 1003 hPa
Elevation 63
METAR EBCV 181455Z AUTO 26011KT 9999 FEW034/// 07/02 Q1003 BLU
Observed Flight Rules
Jan-18 @ 14:55 UTC
(47 minutes ago)
VFR
Wind Visibility
260° at 11 knots 10,000+ meters
Clouds
  • Few at 3,400' AGL
Temperature Dewpoint
7°C / 45°F 2°C / 36°F
Humidity Altimeter Pressure
71% 29.62" Hg 1003 hPa